Time;durP1;ratioP1;P1;durP2;ratioP2;P2;SDS_P1;SDS_P2;PMS_P1;PMS_P2;Temp;Humidity;BMP_temperature;BMP_pressure;BME280_temperature;BME280_humidity;BME280_pressure;Samples;Min_cycle;Max_cycle;Signal;HPM_P1;HPM_P2
2022/05/29 00:01:45;;;;;;;7.73;4.80;;;14.30;31.80;;;;;;5017096;28;20756;-75
2022/05/29 00:04:11;;;;;;;9.50;4.43;;;14.20;32.30;;;;;;5017192;28;20256;-75
2022/05/29 00:06:43;;;;;;;10.57;4.40;;;14.30;31.90;;;;;;5015299;28;20496;-75
2022/05/29 00:09:13;;;;;;;11.50;4.50;;;14.40;31.70;;;;;;5014035;28;20545;-75
2022/05/29 00:11:39;;;;;;;8.33;4.80;;;14.40;32.90;;;;;;5013905;28;20417;-75
2022/05/29 00:14:05;;;;;;;8.63;4.90;;;14.30;33.40;;;;;;5013889;28;20448;-75
2022/05/29 00:16:31;;;;;;;7.60;5.00;;;14.30;33.00;;;;;;5013955;28;20182;-75
2022/05/29 00:18:57;;;;;;;13.40;4.40;;;14.40;33.60;;;;;;5013984;28;20806;-75
2022/05/29 00:21:24;;;;;;;10.67;5.17;;;14.20;33.10;;;;;;5013911;28;20416;-75
2022/05/29 00:23:49;;;;;;;9.90;5.13;;;14.10;32.50;;;;;;5013758;28;20436;-75
2022/05/29 00:26:17;;;;;;;11.20;5.70;;;14.30;33.40;;;;;;5013824;28;20416;-75
2022/05/29 00:28:43;;;;;;;9.00;5.60;;;14.60;30.40;;;;;;5013720;28;21007;-75
2022/05/29 00:31:09;;;;;;;8.40;4.70;;;14.50;32.20;;;;;;5013495;28;20505;-75
2022/05/29 00:33:35;;;;;;;11.70;5.73;;;14.20;32.40;;;;;;5013712;28;20452;-75
2022/05/29 00:36:01;;;;;;;13.43;6.40;;;14.20;33.60;;;;;;5013466;28;20419;-75
2022/05/29 00:38:27;;;;;;;12.00;7.13;;;14.20;32.10;;;;;;5013517;28;20231;-75
2022/05/29 00:41:17;;;;;;;11.30;6.53;;;14.20;33.00;;;;;;5013437;28;20299;-75
2022/05/29 00:44:06;;;;;;;11.90;6.57;;;14.10;33.00;;;;;;5013287;28;20491;-75
2022/05/29 00:46:33;;;;;;;10.37;6.30;;;13.90;33.20;;;;;;5013407;28;20393;-75
2022/05/29 00:48:58;;;;;;;10.50;5.87;;;13.80;34.30;;;;;;5013574;28;20804;-75
2022/05/29 00:51:24;;;;;;;11.47;5.83;;;13.70;33.30;;;;;;5013153;28;20405;-75
2022/05/29 00:53:50;;;;;;;8.97;5.40;;;13.80;34.00;;;;;;5013092;28;20563;-75
2022/05/29 00:56:16;;;;;;;9.17;5.20;;;13.90;33.70;;;;;;5013447;28;20177;-75
2022/05/29 00:58:44;;;;;;;18.13;5.13;;;13.90;31.90;;;;;;5013313;28;20416;-75
2022/05/29 01:01:10;;;;;;;19.83;5.33;;;14.10;32.20;;;;;;5013005;28;20181;-75
2022/05/29 01:03:36;;;;;;;14.03;4.70;;;13.90;33.50;;;;;;5012966;28;20473;-75
2022/05/29 01:06:02;;;;;;;11.10;4.97;;;13.90;33.30;;;;;;5013187;28;20500;-75
2022/05/29 01:08:34;;;;;;;11.20;4.73;;;13.80;33.00;;;;;;5013093;28;20267;-75
2022/05/29 01:11:06;;;;;;;8.83;5.00;;;13.90;33.20;;;;;;5013069;28;20181;-75
2022/05/29 01:13:37;;;;;;;11.30;5.27;;;13.90;33.70;;;;;;5012531;28;20602;-75
2022/05/29 01:16:36;;;;;;;10.13;5.13;;;13.90;33.40;;;;;;5012902;28;20404;-75
2022/05/29 01:19:14;;;;;;;15.77;5.30;;;13.90;33.30;;;;;;5011747;28;20396;-75
2022/05/29 01:22:00;;;;;;;20.53;4.93;;;13.80;33.40;;;;;;5012579;28;20458;-75
2022/05/29 01:24:32;;;;;;;12.50;4.70;;;13.80;33.80;;;;;;5012689;28;20412;-75
2022/05/29 01:27:19;;;;;;;9.60;4.80;;;13.70;34.00;;;;;;5012554;28;20499;-75
2022/05/29 01:29:53;;;;;;;7.90;4.60;;;13.90;33.50;;;;;;5012819;28;20401;-75
2022/05/29 01:32:44;;;;;;;7.13;4.50;;;13.90;34.20;;;;;;5012343;28;20424;-75
2022/05/29 01:35:18;;;;;;;11.43;4.70;;;13.90;33.50;;;;;;5012464;28;20417;-75
2022/05/29 01:38:19;;;;;;;10.23;4.97;;;14.10;33.00;;;;;;5012417;28;20679;-75
2022/05/29 01:41:00;;;;;;;8.83;4.77;;;14.10;33.90;;;;;;4991361;28;20428;-75
2022/05/29 01:43:44;;;;;;;7.73;4.93;;;14.20;32.00;;;;;;5012276;28;20975;-75
2022/05/29 01:46:24;;;;;;;8.27;4.40;;;14.10;32.40;;;;;;5012240;28;20400;-75
2022/05/29 01:49:05;;;;;;;7.53;4.47;;;14.20;32.10;;;;;;5012557;28;20400;-75
2022/05/29 01:51:38;;;;;;;8.23;4.40;;;14.20;32.90;;;;;;5012117;28;20978;-75
2022/05/29 01:54:13;;;;;;;16.23;5.60;;;14.20;32.30;;;;;;5011961;28;20546;-75
2022/05/29 01:56:58;;;;;;;6.43;4.20;;;14.10;32.00;;;;;;5012525;28;20395;-75
2022/05/29 01:59:36;;;;;;;8.90;5.33;;;14.20;32.30;;;;;;5012138;28;20974;-75
2022/05/29 02:02:08;;;;;;;7.10;4.60;;;14.30;32.40;;;;;;5011529;28;20482;-75
2022/05/29 02:04:38;;;;;;;7.63;4.70;;;14.10;32.60;;;;;;5011846;28;20776;-75
2022/05/29 02:10:00;;;;;;;8.00;4.63;;;14.10;32.80;;;;;;5012251;28;20419;-75
2022/05/29 02:12:29;;;;;;;12.23;5.13;;;14.20;33.40;;;;;;5011617;28;20491;-75
2022/05/29 02:15:10;;;;;;;7.90;4.50;;;14.20;33.40;;;;;;5011941;28;20447;-75
2022/05/29 02:17:42;;;;;;;10.27;5.30;;;14.20;32.10;;;;;;5011970;28;20400;-75
2022/05/29 02:20:28;;;;;;;13.73;4.67;;;14.30;32.20;;;;;;5012087;28;20420;-75
2022/05/29 02:23:00;;;;;;;8.10;4.33;;;14.20;31.30;;;;;;5011291;28;20436;-75
2022/05/29 02:25:27;;;;;;;9.73;4.70;;;14.30;30.90;;;;;;5011730;28;20976;-74
2022/05/29 02:27:57;;;;;;;7.53;4.33;;;14.20;31.00;;;;;;5011676;28;20404;-75
2022/05/29 02:30:31;;;;;;;8.73;4.83;;;14.20;31.60;;;;;;5011362;28;20439;-75
2022/05/29 02:33:21;;;;;;;8.70;4.53;;;14.00;32.40;;;;;;5010988;28;20466;-74
2022/05/29 02:36:19;;;;;;;9.37;5.00;;;14.00;33.30;;;;;;5011559;28;20420;-74
2022/05/29 02:39:07;;;;;;;14.27;4.43;;;13.80;33.60;;;;;;5011686;28;20408;-75
2022/05/29 02:42:02;;;;;;;8.80;4.80;;;13.90;33.50;;;;;;4991182;28;20424;-75
2022/05/29 02:44:37;;;;;;;14.00;4.90;;;13.90;34.10;;;;;;4993264;28;20419;-75
2022/05/29 02:47:16;;;;;;;8.67;4.97;;;13.60;35.00;;;;;;5011428;28;20926;-75
2022/05/29 02:49:51;;;;;;;9.63;5.50;;;13.60;34.70;;;;;;5011499;28;20900;-75
2022/05/29 02:52:18;;;;;;;12.20;5.30;;;13.50;35.30;;;;;;5011109;28;20428;-75
2022/05/29 02:54:43;;;;;;;9.53;5.43;;;13.60;36.10;;;;;;5011120;28;20455;-75
2022/05/29 02:57:10;;;;;;;12.43;5.77;;;13.70;35.80;;;;;;5011334;28;20439;-75
2022/05/29 02:59:49;;;;;;;9.00;5.27;;;13.50;36.40;;;;;;5011442;28;20166;-75
2022/05/29 03:02:41;;;;;;;9.30;5.57;;;13.40;36.80;;;;;;5011116;28;20424;-75
2022/05/29 03:05:22;;;;;;;12.27;5.50;;;13.30;35.40;;;;;;5011075;28;20400;-74
2022/05/29 03:08:18;;;;;;;8.27;5.63;;;13.10;34.70;;;;;;5011201;28;20508;-75
2022/05/29 03:11:02;;;;;;;10.03;6.03;;;12.90;35.00;;;;;;5011226;28;20408;-75
2022/05/29 03:13:33;;;;;;;14.00;6.33;;;12.70;35.60;;;;;;5011029;28;20982;-75
2022/05/29 03:16:13;;;;;;;10.23;6.60;;;12.60;37.70;;;;;;5011061;28;20411;-75
2022/05/29 03:18:56;;;;;;;10.93;5.90;;;13.00;35.60;;;;;;5011070;28;20774;-75
2022/05/29 03:21:49;;;;;;;17.40;7.10;;;13.10;35.20;;;;;;5011125;28;20404;-75
2022/05/29 03:24:28;;;;;;;12.50;6.90;;;13.30;36.40;;;;;;5011082;28;20389;-75
2022/05/29 03:27:12;;;;;;;12.27;7.53;;;13.30;35.40;;;;;;5010979;28;20434;-76
2022/05/29 03:29:55;;;;;;;10.97;7.43;;;13.40;35.50;;;;;;5011197;28;20990;-74
2022/05/29 03:32:22;;;;;;;11.07;6.57;;;13.40;35.60;;;;;;5010872;28;20421;-75
2022/05/29 03:34:48;;;;;;;11.87;6.17;;;13.40;36.70;;;;;;5010890;28;20546;-75
2022/05/29 03:37:14;;;;;;;11.10;6.73;;;13.30;36.00;;;;;;5010991;28;20405;-75
2022/05/29 03:39:39;;;;;;;14.93;6.80;;;13.40;36.30;;;;;;5010768;28;20919;-74
2022/05/29 03:42:06;;;;;;;14.30;6.67;;;13.40;36.20;;;;;;5011708;28;20523;-75
2022/05/29 03:44:32;;;;;;;10.13;5.90;;;13.30;36.00;;;;;;5014679;28;20215;-75
2022/05/29 03:46:57;;;;;;;9.90;6.47;;;13.30;36.50;;;;;;5014530;28;20811;-75
2022/05/29 03:49:24;;;;;;;10.80;5.97;;;13.30;36.20;;;;;;5014361;28;20408;-75
2022/05/29 03:51:50;;;;;;;10.50;5.47;;;13.30;35.60;;;;;;5014287;28;20169;-75
2022/05/29 03:54:16;;;;;;;12.53;5.47;;;13.30;36.20;;;;;;5014323;28;20461;-75
2022/05/29 03:56:42;;;;;;;7.90;5.03;;;13.30;35.40;;;;;;5014454;28;20416;-75
2022/05/29 03:59:08;;;;;;;12.43;5.63;;;13.40;35.50;;;;;;5014300;28;20416;-75
2022/05/29 04:01:35;;;;;;;7.97;5.23;;;13.80;35.90;;;;;;5014022;28;20534;-75
2022/05/29 04:04:01;;;;;;;8.63;5.10;;;13.50;33.00;;;;;;5013999;28;20523;-75
2022/05/29 04:06:28;;;;;;;11.80;5.47;;;13.60;33.30;;;;;;5014212;28;20415;-75
2022/05/29 04:14:26;;;;;;;13.30;5.03;;;13.70;32.70;;;;;;5013777;28;20471;-75
2022/05/29 04:16:52;;;;;;;8.40;4.90;;;13.60;33.60;;;;;;5014234;28;20417;-75
2022/05/29 04:19:18;;;;;;;8.20;4.73;;;13.50;33.30;;;;;;5012818;28;20181;-75
2022/05/29 04:21:46;;;;;;;9.53;4.40;;;13.40;33.60;;;;;;5013940;28;20406;-75
2022/05/29 04:24:11;;;;;;;11.20;5.30;;;13.40;33.50;;;;;;5013677;28;20912;-75
2022/05/29 04:26:38;;;;;;;10.03;4.87;;;13.50;34.30;;;;;;5013986;28;20409;-75
2022/05/29 04:29:05;;;;;;;8.40;4.90;;;13.60;34.00;;;;;;5013889;28;20696;-75
2022/05/29 04:31:32;;;;;;;8.30;4.63;;;13.70;34.50;;;;;;5013699;28;20423;-75
2022/05/29 04:33:58;;;;;;;10.20;5.10;;;13.80;34.20;;;;;;5013439;28;20457;-75
2022/05/29 04:36:24;;;;;;;9.33;4.80;;;13.80;34.00;;;;;;5013450;28;20405;-75
2022/05/29 04:38:50;;;;;;;11.50;4.90;;;13.80;33.60;;;;;;5013747;28;20196;-75
2022/05/29 04:41:16;;;;;;;8.93;4.60;;;13.70;32.70;;;;;;5013513;28;20467;-75
2022/05/29 04:43:42;;;;;;;13.83;5.27;;;13.70;33.40;;;;;;5013441;28;20456;-75
2022/05/29 04:46:07;;;;;;;11.10;5.00;;;13.80;33.20;;;;;;5013402;28;20451;-75
2022/05/29 04:48:33;;;;;;;10.07;5.43;;;13.40;33.70;;;;;;5013516;28;20178;-75
2022/05/29 04:51:00;;;;;;;12.47;5.70;;;13.40;33.90;;;;;;5013163;28;20180;-75
2022/05/29 04:53:28;;;;;;;9.90;5.33;;;12.90;35.20;;;;;;5012963;28;20201;-75
2022/05/29 04:55:55;;;;;;;9.80;5.97;;;12.20;38.10;;;;;;5013356;28;20412;-74
2022/05/29 04:58:23;;;;;;;8.20;5.40;;;12.20;39.20;;;;;;5013438;28;20759;-75
2022/05/29 05:00:49;;;;;;;10.70;6.30;;;12.50;38.80;;;;;;5012975;28;20409;-75
2022/05/29 05:03:14;;;;;;;14.13;6.27;;;12.90;36.90;;;;;;5012939;28;20516;-75
2022/05/29 05:05:40;;;;;;;8.77;5.17;;;12.90;35.10;;;;;;5013115;28;20645;-74
2022/05/29 05:08:06;;;;;;;9.60;5.10;;;13.10;34.60;;;;;;5011921;28;20424;-75
2022/05/29 05:10:32;;;;;;;8.27;5.07;;;13.20;35.30;;;;;;5013206;28;20173;-75
2022/05/29 05:12:57;;;;;;;9.20;5.23;;;13.60;36.20;;;;;;5012631;28;20282;-75
2022/05/29 05:15:23;;;;;;;17.97;5.43;;;13.40;35.50;;;;;;5012706;28;20169;-74
2022/05/29 05:17:49;;;;;;;12.37;5.00;;;13.20;35.40;;;;;;5013051;28;20591;-75
2022/05/29 05:20:14;;;;;;;11.87;5.50;;;13.60;33.60;;;;;;5012832;28;20170;-75
2022/05/29 05:22:41;;;;;;;8.83;5.97;;;13.70;33.90;;;;;;5012633;28;20664;-75
2022/05/29 05:25:09;;;;;;;10.47;4.80;;;13.90;33.70;;;;;;5012678;28;20462;-75
2022/05/29 05:27:35;;;;;;;10.63;5.80;;;13.80;34.40;;;;;;5012619;28;20433;-75
2022/05/29 05:30:01;;;;;;;11.07;5.40;;;13.80;35.00;;;;;;5012631;28;20445;-75
2022/05/29 05:32:26;;;;;;;10.90;5.57;;;14.00;35.10;;;;;;5012440;28;20564;-75
2022/05/29 05:34:52;;;;;;;15.40;5.60;;;14.20;31.70;;;;;;5012433;28;20990;-75
2022/05/29 05:37:18;;;;;;;8.43;5.30;;;14.40;30.80;;;;;;5012994;28;20174;-75
2022/05/29 05:39:43;;;;;;;10.37;6.07;;;14.40;31.90;;;;;;5012354;28;20184;-75
2022/05/29 05:42:09;;;;;;;16.63;5.90;;;14.70;33.50;;;;;;5012255;28;20225;-75
2022/05/29 05:44:36;;;;;;;10.07;5.20;;;14.50;32.90;;;;;;5012278;28;20217;-75
2022/05/29 05:47:01;;;;;;;11.50;5.50;;;14.60;32.60;;;;;;5012365;28;20934;-75
2022/05/29 05:49:28;;;;;;;10.67;5.13;;;14.40;31.00;;;;;;5012312;28;20453;-75
2022/05/29 05:51:55;;;;;;;13.03;5.70;;;14.20;32.30;;;;;;5011926;28;20181;-75
2022/05/29 05:54:20;;;;;;;9.60;5.50;;;14.20;33.00;;;;;;5012132;28;20977;-75
2022/05/29 05:56:51;;;;;;;8.50;5.40;;;14.60;32.70;;;;;;5012544;28;20452;-76
2022/05/29 05:59:17;;;;;;;8.43;5.30;;;14.80;32.10;;;;;;5012310;28;20637;-76
2022/05/29 06:01:42;;;;;;;10.30;5.43;;;15.10;32.10;;;;;;5011772;28;20413;-75
2022/05/29 06:04:09;;;;;;;10.93;5.63;;;15.40;30.70;;;;;;5011700;28;20440;-75
2022/05/29 06:06:34;;;;;;;10.90;5.53;;;15.50;32.00;;;;;;5011936;28;20177;-75
2022/05/29 06:09:00;;;;;;;11.77;6.00;;;15.60;30.30;;;;;;5011991;28;20481;-75
2022/05/29 06:11:27;;;;;;;8.50;5.37;;;15.80;29.10;;;;;;5011895;28;20177;-75
2022/05/29 06:13:54;;;;;;;10.17;6.03;;;16.00;30.50;;;;;;5011610;28;20302;-75
2022/05/29 06:16:20;;;;;;;21.30;6.00;;;16.00;29.00;;;;;;5011913;28;20457;-75
2022/05/29 06:18:46;;;;;;;10.60;5.83;;;16.10;29.80;;;;;;5011930;28;20416;-75
2022/05/29 06:21:12;;;;;;;15.03;5.87;;;16.20;29.70;;;;;;5011675;28;20404;-75
2022/05/29 06:23:39;;;;;;;9.90;6.43;;;15.90;29.50;;;;;;5011458;28;20566;-75
2022/05/29 06:26:07;;;;;;;10.13;5.70;;;15.90;29.90;;;;;;5011633;28;20482;-75
2022/05/29 06:28:33;;;;;;;8.90;5.77;;;15.90;30.60;;;;;;5011835;28;20406;-75
2022/05/29 06:31:01;;;;;;;11.67;6.50;;;15.90;29.70;;;;;;5011694;28;20404;-75
2022/05/29 06:33:29;;;;;;;17.93;6.20;;;15.80;30.00;;;;;;5011289;28;20455;-75
2022/05/29 06:36:05;;;;;;;8.77;5.97;;;15.50;30.80;;;;;;5011595;28;20441;-75
2022/05/29 06:38:30;;;;;;;13.77;6.03;;;14.90;30.90;;;;;;5011529;28;20408;-75
2022/05/29 06:40:56;;;;;;;21.73;7.47;;;15.10;32.90;;;;;;5010049;28;20420;-75
2022/05/29 06:43:21;;;;;;;9.23;6.03;;;15.30;32.30;;;;;;5011420;28;20200;-75
2022/05/29 06:45:47;;;;;;;11.53;6.03;;;15.50;30.20;;;;;;5011138;28;20558;-75
2022/05/29 06:48:14;;;;;;;8.67;5.33;;;15.80;29.80;;;;;;5011587;28;20174;-75
2022/05/29 06:50:40;;;;;;;9.23;5.70;;;15.20;30.70;;;;;;5011415;28;20861;-75
2022/05/29 06:53:07;;;;;;;10.97;5.57;;;15.30;30.00;;;;;;5011029;28;20556;-74
2022/05/29 06:55:33;;;;;;;16.60;5.47;;;15.20;31.40;;;;;;5011315;28;20228;-74
2022/05/29 06:57:58;;;;;;;8.37;5.77;;;15.80;30.30;;;;;;5011427;28;20396;-75
2022/05/29 07:08:43;;;;;;;11.70;5.50;;;17.00;28.60;;;;;;5011118;28;20459;-75
2022/05/29 07:11:24;;;;;;;13.10;5.53;;;16.90;28.20;;;;;;5011167;28;20784;-75
2022/05/29 07:13:50;;;;;;;12.07;6.30;;;16.60;28.70;;;;;;5011052;28;20457;-75
2022/05/29 07:16:16;;;;;;;12.10;5.43;;;16.90;28.30;;;;;;5012758;28;20846;-75
2022/05/29 07:18:42;;;;;;;7.77;5.20;;;17.10;27.90;;;;;;5015281;28;20406;-75
2022/05/29 07:21:08;;;;;;;13.10;6.30;;;16.40;28.20;;;;;;5014748;28;20409;-75
2022/05/29 07:23:35;;;;;;;13.10;6.93;;;15.80;31.20;;;;;;5015313;28;20518;-75
2022/05/29 07:26:01;;;;;;;15.90;7.10;;;16.00;29.80;;;;;;5015109;28;20416;-75
2022/05/29 07:28:27;;;;;;;16.07;6.87;;;16.30;31.70;;;;;;5015026;28;20410;-75
2022/05/29 07:30:54;;;;;;;13.93;6.20;;;16.80;29.30;;;;;;5015013;28;20426;-74
2022/05/29 07:33:21;;;;;;;9.83;5.50;;;16.00;29.70;;;;;;5014577;28;20500;-74
2022/05/29 07:35:46;;;;;;;8.90;6.23;;;15.00;33.40;;;;;;5014703;28;20445;-74
2022/05/29 07:38:12;;;;;;;12.43;5.80;;;15.30;33.60;;;;;;5014933;28;20423;-75
2022/05/29 07:40:38;;;;;;;14.53;6.20;;;16.00;32.20;;;;;;5014839;28;20176;-75
2022/05/29 07:43:19;;;;;;;10.93;5.50;;;16.60;30.50;;;;;;5014361;28;20210;-75
2022/05/29 07:45:59;;;;;;;11.93;6.00;;;16.90;30.80;;;;;;5014432;28;20610;-75
2022/05/29 07:48:27;;;;;;;11.93;6.00;;;16.80;30.90;;;;;;5014911;28;20823;-76
2022/05/29 07:50:53;;;;;;;14.43;5.60;;;16.90;33.00;;;;;;5014425;28;20501;-75
2022/05/29 07:53:19;;;;;;;10.20;5.40;;;16.70;30.20;;;;;;5014376;28;21019;-75
2022/05/29 07:55:45;;;;;;;10.83;5.00;;;16.10;33.80;;;;;;5014554;28;20791;-76
2022/05/29 07:58:13;;;;;;;8.40;5.60;;;16.50;34.70;;;;;;5014891;28;20408;-76
2022/05/29 08:00:39;;;;;;;8.70;5.20;;;16.90;34.10;;;;;;5014412;28;20191;-75
2022/05/29 08:03:06;;;;;;;9.00;5.23;;;16.40;31.30;;;;;;5014176;28;20499;-75
2022/05/29 08:05:35;;;;;;;12.17;5.80;;;15.70;32.30;;;;;;5014078;28;20416;-75
2022/05/29 08:08:04;;;;;;;9.70;5.37;;;15.50;33.60;;;;;;5014471;28;20420;-75
2022/05/29 08:10:33;;;;;;;10.67;5.10;;;15.50;32.80;;;;;;5014361;28;20413;-75
2022/05/29 08:12:59;;;;;;;8.03;5.50;;;15.20;32.90;;;;;;5013897;28;20966;-75
2022/05/29 08:15:24;;;;;;;14.53;5.50;;;15.50;33.90;;;;;;5014094;28;20416;-75
2022/05/29 08:17:50;;;;;;;11.20;5.70;;;16.10;32.70;;;;;;5013813;28;20413;-75
2022/05/29 08:20:17;;;;;;;10.20;5.63;;;16.50;31.10;;;;;;5014124;28;20194;-75
2022/05/29 08:22:43;;;;;;;10.20;5.43;;;16.80;32.10;;;;;;5013655;28;20187;-75
2022/05/29 08:30:37;;;;;;;8.13;5.40;;;16.70;31.40;;;;;;5013977;28;20459;-76
2022/05/29 08:33:16;;;;;;;10.57;5.23;;;17.00;30.10;;;;;;5013462;28;20467;-75
2022/05/29 08:35:55;;;;;;;9.00;5.30;;;17.10;29.20;;;;;;5012574;28;20179;-75
2022/05/29 08:38:21;;;;;;;7.97;5.40;;;17.20;28.60;;;;;;5013837;28;20474;-75
2022/05/29 08:40:49;;;;;;;13.00;5.67;;;17.40;29.10;;;;;;5013458;28;20566;-75
2022/05/29 08:43:24;;;;;;;8.37;5.73;;;17.40;29.50;;;;;;5012976;28;20837;-75
2022/05/29 08:45:51;;;;;;;10.20;5.33;;;17.10;29.50;;;;;;5013617;28;20395;-75
2022/05/29 08:48:21;;;;;;;14.10;5.53;;;16.70;30.00;;;;;;5013453;28;20425;-76
2022/05/29 08:51:11;;;;;;;7.70;4.83;;;17.10;31.40;;;;;;5013357;28;20412;-76
2022/05/29 08:54:06;;;;;;;13.80;5.60;;;17.30;30.00;;;;;;5013330;28;20460;-75
2022/05/29 08:56:39;;;;;;;9.10;5.10;;;17.70;29.00;;;;;;5013149;28;20416;-75
2022/05/29 08:59:29;;;;;;;10.43;5.10;;;17.70;29.90;;;;;;5013600;28;20408;-75
2022/05/29 09:02:18;;;;;;;15.37;5.20;;;18.00;28.00;;;;;;5013024;28;20467;-75
2022/05/29 09:04:53;;;;;;;7.33;5.30;;;18.10;28.70;;;;;;5013231;28;20964;-75
2022/05/29 09:07:22;;;;;;;9.80;5.47;;;17.80;27.80;;;;;;5013313;28;20750;-76
2022/05/29 09:09:49;;;;;;;11.07;5.20;;;17.90;28.30;;;;;;5012939;28;20471;-75
2022/05/29 09:12:47;;;;;;;8.57;4.73;;;17.90;27.80;;;;;;5012835;28;20909;-76
2022/05/29 09:15:37;;;;;;;16.93;4.23;;;18.00;27.80;;;;;;5012449;28;20965;-76
2022/05/29 09:18:12;;;;;;;10.07;4.40;;;18.40;26.60;;;;;;5012973;28;20409;-76
2022/05/29 09:20:50;;;;;;;10.37;4.90;;;18.00;27.20;;;;;;5013064;28;20429;-76
2022/05/29 09:23:30;;;;;;;9.00;4.80;;;17.90;26.20;;;;;;5012333;28;20467;-75
2022/05/29 09:25:57;;;;;;;10.10;5.20;;;15.90;30.10;;;;;;5012591;28;20907;-74
2022/05/29 09:28:39;;;;;;;9.03;4.30;;;14.80;34.00;;;;;;5012983;28;20412;-74
2022/05/29 09:31:30;;;;;;;11.37;4.90;;;14.00;36.10;;;;;;5012388;28;20486;-74
2022/05/29 09:33:56;;;;;;;19.73;5.27;;;13.50;39.90;;;;;;5011902;28;20472;-74
2022/05/29 09:36:58;;;;;;;14.73;5.60;;;12.60;45.90;;;;;;5012589;28;20769;-74
2022/05/29 09:39:35;;;;;;;11.73;5.03;;;12.60;49.30;;;;;;5011702;28;20714;-74
2022/05/29 09:42:09;;;;;;;15.60;6.37;;;11.40;62.50;;;;;;5011852;28;20430;-74
2022/05/29 09:44:35;;;;;;;15.53;5.80;;;11.40;64.10;;;;;;5144310;23;20495;-72
2022/05/29 09:50:09;;;;;;;19.57;7.40;;;10.80;79.80;;;;;;5033112;28;20241;-81
2022/05/29 09:52:41;;;;;;;23.00;9.20;;;10.70;83.60;;;;;;5032769;28;20388;-71
2022/05/29 09:55:32;;;;;;;24.77;10.00;;;11.00;84.90;;;;;;5032743;28;20467;-82
2022/05/29 09:58:02;;;;;;;26.73;10.63;;;12.10;77.40;;;;;;5031955;28;20412;-73
2022/05/29 10:00:35;;;;;;;22.30;10.43;;;13.00;69.20;;;;;;5031861;28;20403;-73
2022/05/29 10:03:09;;;;;;;23.40;10.37;;;13.50;65.50;;;;;;5032114;28;20378;-73
2022/05/29 10:05:39;;;;;;;19.80;8.53;;;13.70;64.10;;;;;;5030625;28;20427;-73
2022/05/29 10:08:31;;;;;;;19.57;9.20;;;13.70;59.90;;;;;;5032178;28;20388;-77
2022/05/29 10:11:18;;;;;;;21.60;10.90;;;13.40;58.90;;;;;;5034241;28;20895;-74
2022/05/29 10:13:44;;;;;;;23.93;12.47;;;13.50;60.60;;;;;;5033296;28;20463;-79
2022/05/29 10:16:30;;;;;;;23.17;10.50;;;14.10;63.10;;;;;;5033406;28;20410;-77
2022/05/29 10:18:55;;;;;;;16.80;8.73;;;14.40;62.50;;;;;;5033931;28;20907;-79
2022/05/29 10:21:29;;;;;;;19.50;7.63;;;14.40;61.20;;;;;;5034158;28;20409;-82
2022/05/29 10:24:40;;;;;;;12.50;7.20;;;15.00;55.80;;;;;;5032973;28;20219;-78
2022/05/29 10:27:29;;;;;;;16.60;8.20;;;15.50;50.90;;;;;;5033931;28;20413;-78
2022/05/29 10:30:09;;;;;;;14.17;7.50;;;15.80;53.20;;;;;;5033991;28;20415;-78
2022/05/29 10:32:46;;;;;;;15.20;7.23;;;15.80;49.50;;;;;;5046283;28;20410;-86
2022/05/29 10:35:18;;;;;;;14.23;6.20;;;16.10;49.70;;;;;;5045207;28;20455;-80
2022/05/29 10:38:13;;;;;;;9.30;5.90;;;14.80;47.70;;;;;;5048317;28;20410;-79
2022/05/29 10:40:48;;;;;;;12.53;6.03;;;14.70;52.90;;;;;;5045587;28;20468;-81
2022/05/29 10:47:35;;;;;;;17.37;6.67;;;15.20;53.20;;;;;;5025038;28;20423;-79
2022/05/29 10:51:17;;;;;;;10.93;6.40;;;16.10;52.90;;;;;;4984635;28;20436;-84
2022/05/29 10:54:02;;;;;;;11.50;5.23;;;16.50;47.60;;;;;;4979320;28;20471;-80
2022/05/29 11:00:06;;;;;;;9.80;5.00;;;16.90;47.00;;;;;;4980491;28;20409;-79
2022/05/29 11:06:19;;;;;;;11.00;5.97;;;17.10;45.50;;;;;;4907273;29;20454;-81
2022/05/29 11:09:16;;;;;;;12.23;5.87;;;17.40;42.10;;;;;;4908495;29;20972;-80
2022/05/29 11:11:59;;;;;;;10.63;5.93;;;16.70;44.20;;;;;;4904832;29;20907;-83
2022/05/29 11:15:02;;;;;;;9.30;6.03;;;16.80;48.00;;;;;;4899736;29;20519;-82
2022/05/29 11:17:47;;;;;;;14.30;7.27;;;16.90;46.00;;;;;;4898516;29;20417;-81
2022/05/29 11:20:39;;;;;;;11.30;7.40;;;16.90;48.20;;;;;;4907839;29;20417;-82
2022/05/29 11:23:34;;;;;;;9.70;5.60;;;16.80;49.00;;;;;;4914464;29;20448;-81
2022/05/29 11:26:22;;;;;;;10.00;5.47;;;16.70;47.20;;;;;;4962643;29;20423;-80
2022/05/29 11:28:55;;;;;;;7.37;4.60;;;16.80;44.70;;;;;;4961827;29;20455;-82
2022/05/29 11:31:45;;;;;;;11.43;4.33;;;16.50;42.50;;;;;;4946461;29;20438;-80
2022/05/29 11:34:13;;;;;;;5.90;4.10;;;15.00;41.00;;;;;;4965400;29;20644;-81
2022/05/29 11:37:12;;;;;;;11.10;5.07;;;14.80;41.70;;;;;;4964124;29;21004;-81
2022/05/29 11:39:40;;;;;;;13.33;5.23;;;14.80;48.60;;;;;;5009684;28;20775;-81
2022/05/29 11:42:12;;;;;;;12.50;4.90;;;14.90;46.70;;;;;;5035096;28;20527;-74
2022/05/29 11:44:56;;;;;;;7.47;4.07;;;15.30;41.20;;;;;;5029225;28;20928;-72
2022/05/29 11:53:32;;;;;;;8.27;4.20;;;15.20;42.80;;;;;;5030684;28;20484;-73
2022/05/29 11:56:02;;;;;;;5.97;4.33;;;15.20;39.90;;;;;;5029181;28;20422;-73
2022/05/29 11:58:40;;;;;;;6.50;4.00;;;15.00;41.40;;;;;;5030693;28;20414;-72
2022/05/29 12:01:08;;;;;;;5.27;3.77;;;15.50;41.30;;;;;;5030611;28;20417;-73
2022/05/29 12:03:45;;;;;;;5.80;3.90;;;15.50;39.30;;;;;;5032200;28;20411;-72
2022/05/29 12:06:22;;;;;;;5.33;3.17;;;16.00;43.40;;;;;;5034124;28;20427;-73
2022/05/29 12:08:59;;;;;;;4.90;3.20;;;17.50;38.00;;;;;;5033991;28;20405;-73
2022/05/29 12:11:34;;;;;;;4.57;3.00;;;18.60;32.90;;;;;;5033905;28;20895;-73
2022/05/29 12:14:07;;;;;;;4.70;2.63;;;19.10;32.40;;;;;;5033619;28;20463;-73
2022/05/29 12:16:36;;;;;;;4.63;2.70;;;20.10;29.50;;;;;;5033890;28;20941;-73
2022/05/29 12:19:07;;;;;;;3.87;2.60;;;20.60;26.80;;;;;;5033952;28;20416;-73
2022/05/29 12:21:51;;;;;;;3.83;2.50;;;21.10;26.40;;;;;;5033518;28;20390;-74
2022/05/29 12:24:26;;;;;;;3.83;2.30;;;21.10;26.80;;;;;;5033714;28;20826;-73
2022/05/29 12:27:19;;;;;;;3.97;2.50;;;20.60;26.80;;;;;;5033790;28;20465;-73
2022/05/29 12:29:53;;;;;;;4.23;2.60;;;20.60;27.10;;;;;;5033696;28;20446;-73
2022/05/29 12:32:30;;;;;;;4.70;2.50;;;20.60;28.00;;;;;;5033467;28;20477;-73
2022/05/29 12:35:16;;;;;;;4.53;2.60;;;20.50;27.30;;;;;;5031776;28;20493;-73
2022/05/29 12:37:51;;;;;;;6.33;2.80;;;20.60;27.10;;;;;;5033389;28;20922;-74
2022/05/29 12:40:59;;;;;;;7.97;2.83;;;20.70;26.50;;;;;;5033619;28;20442;-73
2022/05/29 12:43:56;;;;;;;4.50;2.73;;;20.80;26.50;;;;;;5031893;28;20996;-73
2022/05/29 12:46:59;;;;;;;9.30;3.43;;;20.00;26.80;;;;;;5033347;28;20411;-73
2022/05/29 12:49:36;;;;;;;5.20;2.90;;;19.70;27.00;;;;;;5033146;28;20418;-72
2022/05/29 12:52:26;;;;;;;8.10;2.93;;;19.70;29.30;;;;;;5032993;28;20407;-73
2022/05/29 12:55:15;;;;;;;7.00;3.43;;;20.20;28.70;;;;;;5032887;28;20460;-74
2022/05/29 12:57:47;;;;;;;5.40;2.90;;;19.50;26.80;;;;;;5032812;28;21242;-74
2022/05/29 13:00:31;;;;;;;5.63;3.33;;;19.90;26.70;;;;;;5032908;28;20414;-73
2022/05/29 13:03:18;;;;;;;7.40;2.97;;;20.10;27.50;;;;;;5032744;28;20428;-72
2022/05/29 13:06:06;;;;;;;3.67;2.70;;;20.10;27.30;;;;;;5032885;28;20420;-73
2022/05/29 13:08:41;;;;;;;6.17;3.10;;;20.60;26.40;;;;;;5032962;28;20403;-73
2022/05/29 13:11:09;;;;;;;5.40;2.87;;;20.10;27.90;;;;;;5032919;28;20385;-73
2022/05/29 13:13:44;;;;;;;8.40;3.50;;;19.90;25.90;;;;;;5032177;28;20460;-73
2022/05/29 13:16:27;;;;;;;7.90;3.23;;;20.30;26.60;;;;;;5032792;28;20425;-72
2022/05/29 13:19:21;;;;;;;3.93;2.70;;;20.70;26.20;;;;;;5032623;28;20900;-73
2022/05/29 13:22:04;;;;;;;7.67;3.10;;;20.90;25.60;;;;;;5032160;28;20436;-73
2022/05/29 13:24:39;;;;;;;10.37;3.47;;;20.60;24.90;;;;;;5032567;28;20563;-73
2022/05/29 13:27:16;;;;;;;7.57;3.40;;;19.90;25.60;;;;;;5032370;28;20411;-72
2022/05/29 13:29:56;;;;;;;11.47;3.00;;;20.10;27.30;;;;;;5032563;28;20412;-70
2022/05/29 13:32:27;;;;;;;3.80;2.90;;;20.10;25.80;;;;;;5032258;28;20811;-71
2022/05/29 13:35:05;;;;;;;3.93;2.60;;;20.20;26.00;;;;;;5032201;28;20467;-70
2022/05/29 13:37:44;;;;;;;6.27;3.10;;;19.40;26.20;;;;;;5032116;28;20410;-70
2022/05/29 13:40:21;;;;;;;4.77;2.90;;;18.80;28.60;;;;;;5032204;28;20436;-70
2022/05/29 13:42:49;;;;;;;6.10;2.87;;;19.30;29.60;;;;;;5032165;28;20402;-70
2022/05/29 13:45:43;;;;;;;5.23;3.00;;;19.50;26.90;;;;;;5032186;28;20516;-72
2022/05/29 13:48:17;;;;;;;4.77;2.93;;;20.00;24.30;;;;;;4996473;28;20459;-73
2022/05/29 13:50:56;;;;;;;6.00;3.03;;;19.80;24.70;;;;;;5032412;28;20990;-72
2022/05/29 13:53:38;;;;;;;4.63;2.60;;;20.00;25.00;;;;;;5031900;28;20463;-74
2022/05/29 13:56:09;;;;;;;4.70;3.03;;;20.50;25.50;;;;;;5032014;28;20750;-73
2022/05/29 14:04:49;;;;;;;5.67;2.93;;;19.80;24.90;;;;;;5031638;28;20484;-73